METAR - Iceland

Last updated 16.08.2018 - at. 16:02

SIGMET for the last six hours

No SIGMET messages last 6 hours.

METAR from the last three hours

AerodromeTimeMessage
BIAR2018-08-16 16.00METAR BIAR 161600Z 33013KT 9999 FEW013 BKN026 12/09 Q0996
BIAR2018-08-16 15.00METAR BIAR 161500Z 35016KT 9999 SCT011 BKN020 12/09 Q0996
BIAR2018-08-16 14.00METAR BIAR 161400Z 34012KT 9999 SCT011 BKN020 11/09 Q0996
BIBD2018-08-16 15.21METAR BIBD 161521Z 03009KT 9999 SCT020 BKN025 12/07 Q0999
BIBD2018-08-16 14.00METAR BIBD 161400Z 04013KT 9999 BKN020 BKN030 12/07 Q0999
BIEG2018-08-16 16.00METAR BIEG 161600Z 01011KT 9999 SCT015 BKN025 12/09 Q0994
BIEG2018-08-16 15.00METAR BIEG 161500Z 01010KT 9999 BKN015 BKN025 12/09 Q0994
BIEG2018-08-16 14.00METAR BIEG 161400Z 35007KT 9999 BKN012 BKN025 12/09 Q0994
BIHN2018-08-16 15.00METAR BIHN 161500Z 14003KT 9999 FEW010 BKN028 BKN041 12/09 Q0994
BIHN2018-08-16 14.10METAR BIHN 161410Z 15004KT 9999 FEW010 BKN028 BKN041 11/09 Q0994
BIHU2018-08-16 15.00METAR BIHU 161500Z 35009KT 9999 VCFG SCT006 BKN008 OVC012 10/09 Q0996
BIHU2018-08-16 14.00METAR BIHU 161400Z 34010KT 9999 SCT004 OVC008 10/09 Q0996
BIIS2018-08-16 16.00METAR BIIS 161600Z 04015KT 9999 FEW012 OVC018 09/00 Q1000
BIIS2018-08-16 15.00METAR BIIS 161500Z 04012KT 9999 FEW012 OVC018 10/07 Q1000
BIKF2018-08-16 16.00METAR BIKF 161600Z 01015KT 350V050 9999 FEW035 13/09 Q0997
BIKF2018-08-16 15.30METAR BIKF 161530Z 01017KT 9999 FEW035 13/08 Q0997
BIKF2018-08-16 15.00METAR BIKF 161500Z 01014KT 9999 FEW035 13/08 Q0997
BIKF2018-08-16 14.30METAR BIKF 161430Z 01017KT 9999 FEW017 SCT036 13/09 Q0997
BIKF2018-08-16 14.00METAR BIKF 161400Z 01018KT 9999 FEW017 SCT036 13/09 Q0996
BIKF2018-08-16 13.30METAR BIKF 161330Z 36017KT 9999 FEW015 13/09 Q0997
BIRK2018-08-16 16.00METAR BIRK 161600Z 36014KT 9999 FEW028 14/06 Q0996
BIRK2018-08-16 15.00METAR BIRK 161500Z 36012KT 9999 FEW026 14/07 Q0996
BIRK2018-08-16 14.00METAR BIRK 161400Z 35014KT 9999 SCT027 15/07 Q0996
BIVM2018-08-16 15.00METAR BIVM 161500Z 33012KT 310V360 CAVOK 16/09 Q0994
BIVM2018-08-16 14.21METAR BIVM 161421Z 34015KT 320V010 CAVOK 15/09 Q0994
BIVO2018-08-16 15.00METAR BIVO 161500Z 06009KT 9999 BKN025 12/10 Q0995





Other related web sites


This website is built with Eplica CMS